sensor_id;sensor_type;location;lat;lon;timestamp;pressure;altitude;pressure_sealevel;temperature;humidity
48527;BME280;34317;51.660;5.824;2023-05-16T00:00:42;101781.19;;;13.54;54.11
48527;BME280;34317;51.660;5.824;2023-05-16T00:03:10;101781.19;;;13.54;54.36
48527;BME280;34317;51.660;5.824;2023-05-16T00:05:38;101788.31;;;13.53;53.87
48527;BME280;34317;51.660;5.824;2023-05-16T00:08:05;101778.66;;;13.51;54.10
48527;BME280;34317;51.660;5.824;2023-05-16T00:10:32;101783.97;;;13.51;54.11
48527;BME280;34317;51.660;5.824;2023-05-16T00:12:59;101798.22;;;13.50;53.91
48527;BME280;34317;51.660;5.824;2023-05-16T00:15:28;101787.56;;;13.50;54.15
48527;BME280;34317;51.660;5.824;2023-05-16T00:17:58;101795.50;;;13.51;54.12
48527;BME280;34317;51.660;5.824;2023-05-16T00:20:26;101789.31;;;13.51;54.18
48527;BME280;34317;51.660;5.824;2023-05-16T00:22:54;101788.50;;;13.49;54.12
48527;BME280;34317;51.660;5.824;2023-05-16T00:25:21;101794.75;;;13.48;54.06
48527;BME280;34317;51.660;5.824;2023-05-16T00:27:49;101796.63;;;13.46;54.03
48527;BME280;34317;51.660;5.824;2023-05-16T00:30:16;101794.88;;;13.44;53.91
48527;BME280;34317;51.660;5.824;2023-05-16T00:32:43;101798.47;;;13.43;53.92
48527;BME280;34317;51.660;5.824;2023-05-16T00:35:10;101799.38;;;13.42;53.93
48527;BME280;34317;51.660;5.824;2023-05-16T00:37:38;101795.88;;;13.42;53.90
48527;BME280;34317;51.660;5.824;2023-05-16T00:40:06;101792.41;;;13.40;53.83
48527;BME280;34317;51.660;5.824;2023-05-16T00:42:35;101803.09;;;13.38;53.94
48527;BME280;34317;51.660;5.824;2023-05-16T00:45:03;101797.00;;;13.36;54.00
48527;BME280;34317;51.660;5.824;2023-05-16T00:47:31;101799.72;;;13.35;53.90
48527;BME280;34317;51.660;5.824;2023-05-16T00:49:58;101795.38;;;13.32;53.66
48527;BME280;34317;51.660;5.824;2023-05-16T00:52:26;101791.94;;;13.30;53.95
48527;BME280;34317;51.660;5.824;2023-05-16T00:54:54;101800.78;;;13.29;53.79
48527;BME280;34317;51.660;5.824;2023-05-16T00:57:21;101802.66;;;13.27;54.04
48527;BME280;34317;51.660;5.824;2023-05-16T00:59:49;101798.34;;;13.24;53.90
48527;BME280;34317;51.660;5.824;2023-05-16T01:02:16;101804.63;;;13.22;53.88
48527;BME280;34317;51.660;5.824;2023-05-16T01:04:45;101806.50;;;13.20;54.02
48527;BME280;34317;51.660;5.824;2023-05-16T01:07:12;101803.03;;;13.18;53.81
48527;BME280;34317;51.660;5.824;2023-05-16T01:09:40;101803.16;;;13.15;53.85
48527;BME280;34317;51.660;5.824;2023-05-16T01:14:52;101812.19;;;13.11;53.91
48527;BME280;34317;51.660;5.824;2023-05-16T01:20:36;101814.41;;;12.99;54.22
48527;BME280;34317;51.660;5.824;2023-05-16T01:26:22;101814.75;;;12.90;53.96
48527;BME280;34317;51.660;5.824;2023-05-16T01:28:51;101817.56;;;12.87;54.12
48527;BME280;34317;51.660;5.824;2023-05-16T01:31:20;101821.25;;;12.83;54.22
48527;BME280;34317;51.660;5.824;2023-05-16T01:33:48;101818.72;;;12.80;54.22
48527;BME280;34317;51.660;5.824;2023-05-16T01:39:06;101815.34;;;12.75;54.15
48527;BME280;34317;51.660;5.824;2023-05-16T01:42:00;101804.97;;;12.69;54.35
48527;BME280;34317;51.660;5.824;2023-05-16T01:44:46;101814.00;;;12.64;54.37
48527;BME280;34317;51.660;5.824;2023-05-16T01:47:18;101822.06;;;12.61;54.20
48527;BME280;34317;51.660;5.824;2023-05-16T01:50:15;101817.81;;;12.57;54.42
48527;BME280;34317;51.660;5.824;2023-05-16T01:58:03;101824.25;;;12.50;54.47
48527;BME280;34317;51.660;5.824;2023-05-16T02:00:31;101823.47;;;12.48;54.68
48527;BME280;34317;51.660;5.824;2023-05-16T02:02:59;101825.31;;;12.46;54.69
48527;BME280;34317;51.660;5.824;2023-05-16T02:05:26;101823.69;;;12.42;54.62
48527;BME280;34317;51.660;5.824;2023-05-16T02:07:54;101821.94;;;12.41;54.84
48527;BME280;34317;51.660;5.824;2023-05-16T02:10:21;101826.44;;;12.39;54.72
48527;BME280;34317;51.660;5.824;2023-05-16T02:12:49;101827.38;;;12.38;54.90
48527;BME280;34317;51.660;5.824;2023-05-16T02:15:16;101832.81;;;12.35;54.74
48527;BME280;34317;51.660;5.824;2023-05-16T02:17:43;101833.72;;;12.34;55.00
48527;BME280;34317;51.660;5.824;2023-05-16T02:20:11;101835.56;;;12.32;54.94
48527;BME280;34317;51.660;5.824;2023-05-16T02:22:39;101838.34;;;12.29;54.74
48527;BME280;34317;51.660;5.824;2023-05-16T02:25:07;101834.88;;;12.26;54.93
48527;BME280;34317;51.660;5.824;2023-05-16T02:27:34;101848.16;;;12.26;55.17
48527;BME280;34317;51.660;5.824;2023-05-16T02:30:02;101852.53;;;12.27;54.97
48527;BME280;34317;51.660;5.824;2023-05-16T02:32:31;101843.66;;;12.29;55.10
48527;BME280;34317;51.660;5.824;2023-05-16T02:34:59;101842.72;;;12.30;55.12
48527;BME280;34317;51.660;5.824;2023-05-16T02:37:27;101841.00;;;12.29;54.94
48527;BME280;34317;51.660;5.824;2023-05-16T02:39:54;101854.28;;;12.29;55.00
48527;BME280;34317;51.660;5.824;2023-05-16T02:42:21;101850.81;;;12.26;54.78
48527;BME280;34317;51.660;5.824;2023-05-16T02:44:48;101854.50;;;12.22;54.99
48527;BME280;34317;51.660;5.824;2023-05-16T02:47:17;101859.94;;;12.19;54.86
48527;BME280;34317;51.660;5.824;2023-05-16T02:49:44;101865.34;;;12.16;55.07
48527;BME280;34317;51.660;5.824;2023-05-16T02:52:11;101873.47;;;12.12;54.95
48527;BME280;34317;51.660;5.824;2023-05-16T02:54:39;101878.03;;;12.08;55.07
48527;BME280;34317;51.660;5.824;2023-05-16T02:57:06;101874.66;;;12.03;55.04
48527;BME280;34317;51.660;5.824;2023-05-16T02:59:33;101873.03;;;11.99;55.15
48527;BME280;34317;51.660;5.824;2023-05-16T03:02:00;101881.91;;;11.98;55.26
48527;BME280;34317;51.660;5.824;2023-05-16T03:04:27;101876.72;;;11.95;55.44
48527;BME280;34317;51.660;5.824;2023-05-16T03:06:55;101878.56;;;11.93;55.38
48527;BME280;34317;51.660;5.824;2023-05-16T03:09:22;101880.41;;;11.91;55.54
48527;BME280;34317;51.660;5.824;2023-05-16T03:11:49;101887.53;;;11.88;55.63
48527;BME280;34317;51.660;5.824;2023-05-16T03:14:18;101885.78;;;11.87;55.49
48527;BME280;34317;51.660;5.824;2023-05-16T03:16:46;101884.03;;;11.86;55.67
48527;BME280;34317;51.660;5.824;2023-05-16T03:19:13;101886.75;;;11.85;55.62
48527;BME280;34317;51.660;5.824;2023-05-16T03:21:40;101885.84;;;11.84;55.81
48527;BME280;34317;51.660;5.824;2023-05-16T03:24:07;101885.97;;;11.81;55.63
48527;BME280;34317;51.660;5.824;2023-05-16T03:26:35;101886.94;;;11.79;55.65
48527;BME280;34317;51.660;5.824;2023-05-16T03:29:02;101894.97;;;11.77;55.83
48527;BME280;34317;51.660;5.824;2023-05-16T03:31:29;101895.91;;;11.75;55.91
48527;BME280;34317;51.660;5.824;2023-05-16T03:33:58;101890.72;;;11.72;55.63
48527;BME280;34317;51.660;5.824;2023-05-16T03:36:26;101895.16;;;11.71;55.76
48527;BME280;34317;51.660;5.824;2023-05-16T03:38:53;101898.75;;;11.70;55.85
48527;BME280;34317;51.660;5.824;2023-05-16T03:41:20;101911.06;;;11.71;55.79
48527;BME280;34317;51.660;5.824;2023-05-16T03:43:48;101909.34;;;11.70;56.18
48527;BME280;34317;51.660;5.824;2023-05-16T03:46:15;101911.06;;;11.71;55.92
48527;BME280;34317;51.660;5.824;2023-05-16T03:48:42;101913.78;;;11.69;56.10
48527;BME280;34317;51.660;5.824;2023-05-16T03:51:09;101908.47;;;11.69;56.17
48527;BME280;34317;51.660;5.824;2023-05-16T03:53:36;101911.06;;;11.71;56.17
48527;BME280;34317;51.660;5.824;2023-05-16T03:56:03;101923.31;;;11.75;56.15
48527;BME280;34317;51.660;5.824;2023-05-16T03:58:31;101919.75;;;11.76;56.27
48527;BME280;34317;51.660;5.824;2023-05-16T04:00:58;101922.31;;;11.79;56.16
48527;BME280;34317;51.660;5.824;2023-05-16T04:03:25;101925.78;;;11.81;56.17
48527;BME280;34317;51.660;5.824;2023-05-16T04:05:54;101921.38;;;11.80;56.09
48527;BME280;34317;51.660;5.824;2023-05-16T04:08:22;101927.56;;;11.81;55.87
48527;BME280;34317;51.660;5.824;2023-05-16T04:10:49;101924.03;;;11.80;56.08
48527;BME280;34317;51.660;5.824;2023-05-16T04:13:16;101930.28;;;11.79;56.03
48527;BME280;34317;51.660;5.824;2023-05-16T04:15:43;101932.94;;;11.79;56.07
48527;BME280;34317;51.660;5.824;2023-05-16T04:18:11;101935.59;;;11.79;55.96
48527;BME280;34317;51.660;5.824;2023-05-16T04:20:41;101932.88;;;11.81;56.15
48527;BME280;34317;51.660;5.824;2023-05-16T04:23:08;101942.53;;;11.83;56.13
48527;BME280;34317;51.660;5.824;2023-05-16T04:25:38;101938.13;;;11.82;55.99
48527;BME280;34317;51.660;5.824;2023-05-16T04:28:05;101943.41;;;11.84;56.08
48527;BME280;34317;51.660;5.824;2023-05-16T04:30:32;101946.00;;;11.85;56.05
48527;BME280;34317;51.660;5.824;2023-05-16T04:32:59;101951.31;;;11.85;56.18
48527;BME280;34317;51.660;5.824;2023-05-16T04:35:27;101949.47;;;11.87;56.17
48527;BME280;34317;51.660;5.824;2023-05-16T04:37:54;101954.78;;;11.87;56.10
48527;BME280;34317;51.660;5.824;2023-05-16T04:40:22;101956.59;;;11.87;56.24
48527;BME280;34317;51.660;5.824;2023-05-16T04:42:51;101961.84;;;11.88;56.02
48527;BME280;34317;51.660;5.824;2023-05-16T04:45:19;101961.84;;;11.88;55.93
48527;BME280;34317;51.660;5.824;2023-05-16T04:47:46;101963.59;;;11.90;55.87
48527;BME280;34317;51.660;5.824;2023-05-16T04:50:14;101964.41;;;11.92;55.83
48527;BME280;34317;51.660;5.824;2023-05-16T04:52:42;101975.84;;;11.94;55.83
48527;BME280;34317;51.660;5.824;2023-05-16T04:55:09;101970.44;;;11.97;55.90
48527;BME280;34317;51.660;5.824;2023-05-16T04:57:36;101963.28;;;11.99;55.98
48527;BME280;34317;51.660;5.824;2023-05-16T05:00:05;101965.91;;;12.00;55.77
48527;BME280;34317;51.660;5.824;2023-05-16T05:02:35;101972.91;;;12.03;55.94
48527;BME280;34317;51.660;5.824;2023-05-16T05:05:03;101974.66;;;12.04;55.79
48527;BME280;34317;51.660;5.824;2023-05-16T05:07:31;101979.03;;;12.05;56.00
48527;BME280;34317;51.660;5.824;2023-05-16T05:09:59;101973.84;;;12.02;55.86
48527;BME280;34317;51.660;5.824;2023-05-16T05:12:26;101987.91;;;12.04;55.99
48527;BME280;34317;51.660;5.824;2023-05-16T05:14:54;101980.78;;;12.06;56.01
48527;BME280;34317;51.660;5.824;2023-05-16T05:17:21;101985.97;;;12.09;55.86
48527;BME280;34317;51.660;5.824;2023-05-16T05:19:49;101985.97;;;12.09;55.93
48527;BME280;34317;51.660;5.824;2023-05-16T05:22:16;101984.16;;;12.11;55.82
48527;BME280;34317;51.660;5.824;2023-05-16T05:24:43;101987.63;;;12.13;55.97
48527;BME280;34317;51.660;5.824;2023-05-16T05:27:10;101982.19;;;12.16;55.94
48527;BME280;34317;51.660;5.824;2023-05-16T05:29:38;101987.44;;;12.18;56.04
48527;BME280;34317;51.660;5.824;2023-05-16T05:32:05;101988.28;;;12.20;55.90
48527;BME280;34317;51.660;5.824;2023-05-16T05:34:32;101985.53;;;12.23;55.92
48527;BME280;34317;51.660;5.824;2023-05-16T05:36:59;101988.94;;;12.26;55.75
48527;BME280;34317;51.660;5.824;2023-05-16T05:39:27;101990.63;;;12.29;56.06
48527;BME280;34317;51.660;5.824;2023-05-16T05:41:54;101996.75;;;12.31;55.77
48527;BME280;34317;51.660;5.824;2023-05-16T05:44:21;102002.81;;;12.35;55.76
48527;BME280;34317;51.660;5.824;2023-05-16T05:46:48;101999.13;;;12.39;55.82
48527;BME280;34317;51.660;5.824;2023-05-16T05:49:15;102000.75;;;12.43;55.82
48527;BME280;34317;51.660;5.824;2023-05-16T05:51:43;102004.13;;;12.48;55.69
48527;BME280;34317;51.660;5.824;2023-05-16T05:54:10;102009.38;;;12.51;55.77
48527;BME280;34317;51.660;5.824;2023-05-16T05:56:37;102018.03;;;12.56;55.81
48527;BME280;34317;51.660;5.824;2023-05-16T05:59:04;102017.84;;;12.62;55.74
48527;BME280;34317;51.660;5.824;2023-05-16T06:01:31;102019.34;;;12.70;55.68
48527;BME280;34317;51.660;5.824;2023-05-16T06:03:58;102003.19;;;12.76;55.65
48527;BME280;34317;51.660;5.824;2023-05-16T06:06:28;102006.44;;;12.84;55.71
48527;BME280;34317;51.660;5.824;2023-05-16T06:08:55;102017.69;;;12.92;55.69
48527;BME280;34317;51.660;5.824;2023-05-16T06:11:22;102012.06;;;13.00;55.40
48527;BME280;34317;51.660;5.824;2023-05-16T06:13:51;102009.13;;;13.08;55.59
48527;BME280;34317;51.660;5.824;2023-05-16T06:16:18;102014.22;;;13.14;55.16
48527;BME280;34317;51.660;5.824;2023-05-16T06:18:46;102018.38;;;13.21;55.24
48527;BME280;34317;51.660;5.824;2023-05-16T06:21:14;102018.97;;;13.29;55.07
48527;BME280;34317;51.660;5.824;2023-05-16T06:23:42;102026.69;;;13.37;54.89
48527;BME280;34317;51.660;5.824;2023-05-16T06:26:09;102034.28;;;13.48;55.06
48527;BME280;34317;51.660;5.824;2023-05-16T06:28:36;102032.97;;;13.58;54.76
48527;BME280;34317;51.660;5.824;2023-05-16T06:31:03;102028.09;;;13.69;54.72
48527;BME280;34317;51.660;5.824;2023-05-16T06:33:30;102029.50;;;13.79;54.55
48527;BME280;34317;51.660;5.824;2023-05-16T06:35:57;102027.28;;;13.91;54.43
48527;BME280;34317;51.660;5.824;2023-05-16T06:38:24;102026.75;;;14.03;54.46
48527;BME280;34317;51.660;5.824;2023-05-16T06:40:51;102027.06;;;14.17;54.33
48527;BME280;34317;51.660;5.824;2023-05-16T06:43:20;102037.25;;;14.30;53.86
48527;BME280;34317;51.660;5.824;2023-05-16T06:45:48;102035.91;;;14.40;53.65
48527;BME280;34317;51.660;5.824;2023-05-16T06:48:17;102030.19;;;14.49;53.68
48527;BME280;34317;51.660;5.824;2023-05-16T06:50:48;102031.44;;;14.63;53.62
48527;BME280;34317;51.660;5.824;2023-05-16T06:53:15;102043.31;;;14.76;53.27
48527;BME280;34317;51.660;5.824;2023-05-16T06:55:42;102035.81;;;14.84;53.13
48527;BME280;34317;51.660;5.824;2023-05-16T06:58:10;102028.22;;;14.95;53.12
48527;BME280;34317;51.660;5.824;2023-05-16T07:00:38;102031.44;;;15.04;52.39
48527;BME280;34317;51.660;5.824;2023-05-16T07:03:05;102034.59;;;15.12;52.58
48527;BME280;34317;51.660;5.824;2023-05-16T07:05:32;102034.19;;;15.21;52.55
48527;BME280;34317;51.660;5.824;2023-05-16T07:07:59;102030.31;;;15.28;52.14
48527;BME280;34317;51.660;5.824;2023-05-16T07:10:27;102039.00;;;15.33;52.04
48527;BME280;34317;51.660;5.824;2023-05-16T07:12:54;102035.22;;;15.37;51.88
48527;BME280;34317;51.660;5.824;2023-05-16T07:15:22;102033.06;;;15.46;51.68
48527;BME280;34317;51.660;5.824;2023-05-16T07:17:49;102034.53;;;15.53;51.52
48527;BME280;34317;51.660;5.824;2023-05-16T07:20:17;102027.00;;;15.61;51.89
48527;BME280;34317;51.660;5.824;2023-05-16T07:22:44;102037.00;;;15.76;51.53
48527;BME280;34317;51.660;5.824;2023-05-16T07:25:11;102034.53;;;15.91;51.06
48527;BME280;34317;51.660;5.824;2023-05-16T07:27:40;102035.66;;;16.04;50.96
48527;BME280;34317;51.660;5.824;2023-05-16T07:30:11;102036.78;;;16.18;50.67
48527;BME280;34317;51.660;5.824;2023-05-16T07:32:39;102032.72;;;16.28;50.46
48527;BME280;34317;51.660;5.824;2023-05-16T07:35:07;102044.84;;;16.35;49.88
48527;BME280;34317;51.660;5.824;2023-05-16T07:37:35;102047.34;;;16.38;49.79
48527;BME280;34317;51.660;5.824;2023-05-16T07:40:03;102050.41;;;16.48;49.99
48527;BME280;34317;51.660;5.824;2023-05-16T07:42:30;102036.84;;;16.52;49.45
48527;BME280;34317;51.660;5.824;2023-05-16T07:44:57;102042.97;;;16.54;49.19
48527;BME280;34317;51.660;5.824;2023-05-16T07:47:24;102038.72;;;16.50;48.71
48527;BME280;34317;51.660;5.824;2023-05-16T07:49:52;102039.97;;;16.43;48.37
48527;BME280;34317;51.660;5.824;2023-05-16T07:52:19;102044.84;;;16.35;48.38
48527;BME280;34317;51.660;5.824;2023-05-16T07:54:46;102043.25;;;16.31;48.49
48527;BME280;34317;51.660;5.824;2023-05-16T07:57:14;102048.59;;;16.31;48.51
48527;BME280;34317;51.660;5.824;2023-05-16T07:59:42;102051.19;;;16.32;48.45
48527;BME280;34317;51.660;5.824;2023-05-16T08:02:10;102053.81;;;16.34;48.29
48527;BME280;34317;51.660;5.824;2023-05-16T08:04:37;102055.53;;;16.35;48.17
48527;BME280;34317;51.660;5.824;2023-05-16T08:07:04;102051.19;;;16.32;47.80
48527;BME280;34317;51.660;5.824;2023-05-16T08:09:32;102050.19;;;16.35;47.85
48527;BME280;34317;51.660;5.824;2023-05-16T08:11:59;102048.13;;;16.40;48.02
48527;BME280;34317;51.660;5.824;2023-05-16T08:14:30;102044.34;;;16.44;47.83
48527;BME280;34317;51.660;5.824;2023-05-16T08:16:58;102051.44;;;16.45;47.68
48527;BME280;34317;51.660;5.824;2023-05-16T08:19:26;102048.72;;;16.47;47.55
48527;BME280;34317;51.660;5.824;2023-05-16T08:21:54;102049.56;;;16.47;47.41
48527;BME280;34317;51.660;5.824;2023-05-16T08:24:21;102045.25;;;16.45;47.28
48527;BME280;34317;51.660;5.824;2023-05-16T08:26:48;102045.19;;;16.46;47.01
48527;BME280;34317;51.660;5.824;2023-05-16T08:29:15;102041.63;;;16.46;46.86
48527;BME280;34317;51.660;5.824;2023-05-16T08:31:42;102050.34;;;16.49;46.87
48527;BME280;34317;51.660;5.824;2023-05-16T08:34:10;102051.00;;;16.54;46.94
48527;BME280;34317;51.660;5.824;2023-05-16T08:36:37;102054.31;;;16.60;46.97
48527;BME280;34317;51.660;5.824;2023-05-16T08:39:04;102061.94;;;16.67;46.69
48527;BME280;34317;51.660;5.824;2023-05-16T08:41:32;102061.03;;;16.67;46.26
48527;BME280;34317;51.660;5.824;2023-05-16T08:43:59;102053.41;;;16.59;46.20
48527;BME280;34317;51.660;5.824;2023-05-16T08:46:28;102054.59;;;16.53;46.17
48527;BME280;34317;51.660;5.824;2023-05-16T08:48:58;102044.59;;;16.57;46.35
48527;BME280;34317;51.660;5.824;2023-05-16T08:51:27;102042.09;;;16.71;46.66
48527;BME280;34317;51.660;5.824;2023-05-16T08:54:16;102048.31;;;16.89;46.29
48527;BME280;34317;51.660;5.824;2023-05-16T08:56:44;102050.22;;;17.05;46.28
48527;BME280;34317;51.660;5.824;2023-05-16T08:59:11;102051.09;;;17.21;46.12
48527;BME280;34317;51.660;5.824;2023-05-16T09:01:39;102044.94;;;17.37;45.87
48527;BME280;34317;51.660;5.824;2023-05-16T09:04:08;102039.59;;;17.52;46.03
48527;BME280;34317;51.660;5.824;2023-05-16T09:06:36;102044.94;;;17.68;45.42
48527;BME280;34317;51.660;5.824;2023-05-16T09:09:04;102036.88;;;17.86;45.25
48527;BME280;34317;51.660;5.824;2023-05-16T09:11:34;102036.78;;;18.03;45.07
48527;BME280;34317;51.660;5.824;2023-05-16T09:14:03;102036.66;;;18.21;44.43
48527;BME280;34317;51.660;5.824;2023-05-16T09:16:31;102036.81;;;18.34;44.37
48527;BME280;34317;51.660;5.824;2023-05-16T09:18:59;102048.06;;;18.40;43.79
48527;BME280;34317;51.660;5.824;2023-05-16T09:21:31;102044.41;;;18.41;43.54
48527;BME280;34317;51.660;5.824;2023-05-16T09:24:03;102058.78;;;18.40;43.25
48527;BME280;34317;51.660;5.824;2023-05-16T09:26:37;102061.41;;;18.26;43.23
48527;BME280;34317;51.660;5.824;2023-05-16T09:29:11;102060.75;;;18.06;43.16
48527;BME280;34317;51.660;5.824;2023-05-16T09:31:39;102064.38;;;17.89;43.19
48527;BME280;34317;51.660;5.824;2023-05-16T09:34:07;102063.63;;;17.70;43.12
48527;BME280;34317;51.660;5.824;2023-05-16T09:36:35;102067.09;;;17.56;43.42
48527;BME280;34317;51.660;5.824;2023-05-16T09:39:04;102059.63;;;17.45;42.90
48527;BME280;34317;51.660;5.824;2023-05-16T09:41:34;102064.47;;;17.39;43.38
48527;BME280;34317;51.660;5.824;2023-05-16T09:44:05;102079.66;;;17.38;43.72
48527;BME280;34317;51.660;5.824;2023-05-16T09:46:33;102066.09;;;17.41;44.03
48527;BME280;34317;51.660;5.824;2023-05-16T09:49:01;102064.97;;;17.45;43.66
48527;BME280;34317;51.660;5.824;2023-05-16T09:51:29;102064.28;;;17.42;43.62
48527;BME280;34317;51.660;5.824;2023-05-16T09:53:57;102060.81;;;17.40;43.20
48527;BME280;34317;51.660;5.824;2023-05-16T09:56:24;102065.66;;;17.33;43.20
48527;BME280;34317;51.660;5.824;2023-05-16T09:58:51;102063.41;;;17.25;43.22
48527;BME280;34317;51.660;5.824;2023-05-16T10:01:19;102067.16;;;17.21;43.07
48527;BME280;34317;51.660;5.824;2023-05-16T10:03:46;102067.34;;;17.18;42.76
48527;BME280;34317;51.660;5.824;2023-05-16T10:06:17;102067.50;;;17.15;42.75
48527;BME280;34317;51.660;5.824;2023-05-16T10:08:45;102069.25;;;17.16;43.04
48527;BME280;34317;51.660;5.824;2023-05-16T10:11:13;102067.00;;;17.24;43.31
48527;BME280;34317;51.660;5.824;2023-05-16T10:13:41;102059.28;;;17.36;43.60
48527;BME280;34317;51.660;5.824;2023-05-16T10:16:12;102060.16;;;17.52;43.55
48527;BME280;34317;51.660;5.824;2023-05-16T10:18:41;102048.59;;;17.67;43.60
48527;BME280;34317;51.660;5.824;2023-05-16T10:21:15;102061.09;;;17.84;43.89
48527;BME280;34317;51.660;5.824;2023-05-16T10:23:47;102052.44;;;17.95;44.18
48527;BME280;34317;51.660;5.824;2023-05-16T10:26:16;102057.25;;;18.04;43.98
48527;BME280;34317;51.660;5.824;2023-05-16T10:28:44;102059.84;;;18.06;43.58
48527;BME280;34317;51.660;5.824;2023-05-16T10:31:11;102062.63;;;18.04;43.08
48527;BME280;34317;51.660;5.824;2023-05-16T10:33:39;102061.06;;;18.00;43.06
48527;BME280;34317;51.660;5.824;2023-05-16T10:36:08;102048.97;;;17.93;42.78
48527;BME280;34317;51.660;5.824;2023-05-16T10:38:37;102054.50;;;17.90;43.07
48527;BME280;34317;51.660;5.824;2023-05-16T10:41:05;102046.28;;;17.93;43.03
48527;BME280;34317;51.660;5.824;2023-05-16T10:43:33;102043.06;;;18.02;43.32
48527;BME280;34317;51.660;5.824;2023-05-16T10:46:05;102042.31;;;18.16;43.19
48527;BME280;34317;51.660;5.824;2023-05-16T10:48:35;102041.66;;;18.27;42.88
48527;BME280;34317;51.660;5.824;2023-05-16T10:53:53;102043.88;;;18.51;41.90
48527;BME280;34317;51.660;5.824;2023-05-16T10:56:25;102035.34;;;18.58;42.00
48527;BME280;34317;51.660;5.824;2023-05-16T10:58:53;102037.78;;;18.63;41.41
48527;BME280;34317;51.660;5.824;2023-05-16T11:01:34;102034.28;;;18.61;41.41
48527;BME280;34317;51.660;5.824;2023-05-16T11:04:05;102029.13;;;18.58;41.11
48527;BME280;34317;51.660;5.824;2023-05-16T11:17:15;102039.22;;;18.99;40.96
48527;BME280;34317;51.660;5.824;2023-05-16T11:19:57;102035.75;;;19.11;40.48
48527;BME280;34317;51.660;5.824;2023-05-16T11:22:32;102034.25;;;19.21;39.74
48527;BME280;34317;51.660;5.824;2023-05-16T11:25:07;102038.16;;;19.30;39.66
48527;BME280;34317;51.660;5.824;2023-05-16T11:27:41;102034.78;;;19.41;39.21
48527;BME280;34317;51.660;5.824;2023-05-16T11:32:37;102036.41;;;19.43;38.87
48527;BME280;34317;51.660;5.824;2023-05-16T11:35:06;102034.78;;;19.41;38.59
48527;BME280;34317;51.660;5.824;2023-05-16T11:37:35;102039.31;;;19.40;38.77
48527;BME280;34317;51.660;5.824;2023-05-16T11:40:07;102041.50;;;19.48;38.98
48527;BME280;34317;51.660;5.824;2023-05-16T11:42:45;102037.25;;;19.58;38.61
48527;BME280;34317;51.660;5.824;2023-05-16T11:45:15;102040.53;;;19.63;38.44
48527;BME280;34317;51.660;5.824;2023-05-16T11:47:44;102038.59;;;19.65;38.49
48527;BME280;34317;51.660;5.824;2023-05-16T11:50:14;102036.47;;;19.71;38.13
48527;BME280;34317;51.660;5.824;2023-05-16T11:52:42;102038.03;;;19.75;38.28
48527;BME280;34317;51.660;5.824;2023-05-16T11:55:10;102036.47;;;19.71;38.17
48527;BME280;34317;51.660;5.824;2023-05-16T11:57:38;102038.78;;;19.62;37.90
48527;BME280;34317;51.660;5.824;2023-05-16T12:00:14;102034.88;;;19.54;37.98
48527;BME280;34317;51.660;5.824;2023-05-16T12:02:47;102041.97;;;19.55;37.93
48527;BME280;34317;51.660;5.824;2023-05-16T12:05:16;102043.72;;;19.56;38.21
48527;BME280;34317;51.660;5.824;2023-05-16T12:07:45;102042.84;;;19.55;38.11
48527;BME280;34317;51.660;5.824;2023-05-16T12:10:14;102059.16;;;19.52;38.37
48527;BME280;34317;51.660;5.824;2023-05-16T12:12:43;102055.72;;;19.50;38.22
48527;BME280;34317;51.660;5.824;2023-05-16T12:15:11;102055.91;;;19.47;37.95
48527;BME280;34317;51.660;5.824;2023-05-16T12:17:40;102059.06;;;19.39;38.08
48527;BME280;34317;51.660;5.824;2023-05-16T12:20:08;102067.44;;;19.35;38.24
48527;BME280;34317;51.660;5.824;2023-05-16T12:22:39;102057.03;;;19.29;38.23
48527;BME280;34317;51.660;5.824;2023-05-16T12:25:28;102057.44;;;19.22;38.08
48527;BME280;34317;51.660;5.824;2023-05-16T12:27:59;102062.03;;;19.20;38.27
48527;BME280;34317;51.660;5.824;2023-05-16T12:30:28;102052.91;;;19.23;38.56
48527;BME280;34317;51.660;5.824;2023-05-16T12:35:32;102056.47;;;19.38;38.79
48527;BME280;34317;51.660;5.824;2023-05-16T12:38:03;102070.50;;;19.43;38.63
48527;BME280;34317;51.660;5.824;2023-05-16T12:40:31;102070.50;;;19.43;38.38
48527;BME280;34317;51.660;5.824;2023-05-16T12:42:58;102068.97;;;19.39;38.29
48527;BME280;34317;51.660;5.824;2023-05-16T12:45:26;102065.69;;;19.34;37.94
48527;BME280;34317;51.660;5.824;2023-05-16T12:47:53;102060.88;;;19.24;37.78
48527;BME280;34317;51.660;5.824;2023-05-16T12:50:21;102064.91;;;19.17;37.81
48527;BME280;34317;51.660;5.824;2023-05-16T12:52:53;102074.13;;;19.13;37.86
48527;BME280;34317;51.660;5.824;2023-05-16T12:55:21;102075.19;;;19.11;38.23
48527;BME280;34317;51.660;5.824;2023-05-16T12:57:49;102079.69;;;19.10;38.31
48527;BME280;34317;51.660;5.824;2023-05-16T13:00:18;102069.81;;;19.11;37.82
48527;BME280;34317;51.660;5.824;2023-05-16T13:02:46;102079.88;;;19.07;38.08
48527;BME280;34317;51.660;5.824;2023-05-16T13:05:15;102083.63;;;19.04;38.01
48527;BME280;34317;51.660;5.824;2023-05-16T13:07:43;102085.63;;;19.01;37.95
48527;BME280;34317;51.660;5.824;2023-05-16T13:10:10;102078.72;;;18.97;38.25
48527;BME280;34317;51.660;5.824;2023-05-16T13:12:40;102086.19;;;18.92;38.22
48527;BME280;34317;51.660;5.824;2023-05-16T13:15:09;102088.09;;;18.90;38.41
48527;BME280;34317;51.660;5.824;2023-05-16T13:17:38;102088.28;;;18.86;38.58
48527;BME280;34317;51.660;5.824;2023-05-16T13:20:06;102091.94;;;18.85;38.31
48527;BME280;34317;51.660;5.824;2023-05-16T13:22:41;102099.53;;;18.77;39.06
48527;BME280;34317;51.660;5.824;2023-05-16T13:25:09;102097.13;;;18.73;38.62
48527;BME280;34317;51.660;5.824;2023-05-16T13:27:36;102098.53;;;18.64;38.50
48527;BME280;34317;51.660;5.824;2023-05-16T13:30:04;102101.66;;;18.56;38.71
48527;BME280;34317;51.660;5.824;2023-05-16T13:32:31;102106.72;;;18.46;38.62